createdAt,value
2023-02-15T00:00:09.115Z,0
2023-02-15T00:01:09.034Z,0
2023-02-15T00:02:12.286Z,0
2023-02-15T00:03:09.336Z,0
2023-02-15T00:04:09.058Z,0
2023-02-15T00:05:09.009Z,0
2023-02-15T00:06:09.407Z,0
2023-02-15T00:07:09.040Z,0
2023-02-15T00:08:11.817Z,0
2023-02-15T00:09:09.040Z,0
2023-02-15T00:10:09.037Z,0
2023-02-15T00:11:09.114Z,0
2023-02-15T00:12:09.053Z,0
2023-02-15T00:13:12.109Z,0
2023-02-15T00:14:08.878Z,0
2023-02-15T00:15:09.070Z,0
2023-02-15T00:16:09.680Z,0
2023-02-15T00:17:09.058Z,0
2023-02-15T00:18:09.065Z,0
2023-02-15T00:19:09.066Z,0
2023-02-15T00:20:09.042Z,0
2023-02-15T00:21:09.090Z,0
2023-02-15T00:22:09.084Z,0
2023-02-15T00:23:09.078Z,0
2023-02-15T00:24:12.214Z,0
2023-02-15T00:25:11.615Z,0
2023-02-15T00:26:09.342Z,0
2023-02-15T00:27:09.065Z,0
2023-02-15T00:28:09.143Z,0
2023-02-15T00:29:09.079Z,0
2023-02-15T00:30:09.425Z,0
2023-02-15T00:31:09.543Z,0
2023-02-15T00:32:09.171Z,0
2023-02-15T00:33:09.557Z,0
2023-02-15T00:34:09.332Z,0
2023-02-15T00:35:09.109Z,0
2023-02-15T00:36:09.330Z,0
2023-02-15T00:37:09.116Z,0
2023-02-15T00:38:09.111Z,0
2023-02-15T00:39:09.078Z,0
2023-02-15T00:40:12.175Z,0
2023-02-15T00:41:09.120Z,0
2023-02-15T00:42:09.077Z,0
2023-02-15T00:43:09.100Z,0
2023-02-15T00:44:12.063Z,0
2023-02-15T00:45:09.111Z,0
2023-02-15T00:46:09.958Z,0
2023-02-15T00:47:09.112Z,0
2023-02-15T00:48:09.242Z,0
2023-02-15T00:49:09.115Z,0
2023-02-15T00:50:09.141Z,0
2023-02-15T00:51:12.175Z,0
2023-02-15T00:52:09.105Z,0
2023-02-15T00:53:09.122Z,0
2023-02-15T00:54:09.178Z,0
2023-02-15T00:55:09.282Z,0
2023-02-15T00:56:12.639Z,0
2023-02-15T00:57:09.101Z,0
2023-02-15T00:58:09.158Z,0
2023-02-15T00:59:09.167Z,0
2023-02-15T01:00:09.132Z,0
2023-02-15T01:01:09.364Z,0
2023-02-15T01:02:12.202Z,0
2023-02-15T01:03:09.187Z,0
2023-02-15T01:04:09.347Z,0
2023-02-15T01:05:09.149Z,0
2023-02-15T01:06:09.668Z,0
2023-02-15T01:07:12.083Z,0
2023-02-15T01:08:09.178Z,0
2023-02-15T01:09:09.136Z,0
2023-02-15T01:10:09.126Z,0
2023-02-15T01:11:09.134Z,0
2023-02-15T01:12:09.168Z,0
2023-02-15T01:13:11.945Z,0
2023-02-15T01:14:09.142Z,0
2023-02-15T01:15:09.322Z,0
2023-02-15T01:16:10.335Z,0
2023-02-15T01:17:09.143Z,0
2023-02-15T01:18:13.150Z,0
2023-02-15T01:19:09.230Z,0
2023-02-15T01:20:09.228Z,0
2023-02-15T01:21:09.207Z,0
2023-02-15T01:22:09.160Z,0
2023-02-15T01:23:09.250Z,0
2023-02-15T01:24:09.183Z,0
2023-02-15T01:25:09.138Z,0
2023-02-15T01:26:09.733Z,0
2023-02-15T01:27:09.204Z,0
2023-02-15T01:28:09.212Z,0
2023-02-15T01:29:09.466Z,0
2023-02-15T01:30:09.377Z,0
2023-02-15T01:31:09.661Z,0
2023-02-15T01:32:09.716Z,0
2023-02-15T01:33:09.217Z,0
2023-02-15T01:34:09.185Z,0
2023-02-15T01:35:09.240Z,0
2023-02-15T01:36:09.752Z,0
2023-02-15T01:37:09.239Z,0
2023-02-15T01:38:09.208Z,0
2023-02-15T01:39:09.174Z,0
2023-02-15T01:40:12.314Z,0
2023-02-15T01:41:09.216Z,0
2023-02-15T01:42:09.173Z,0
2023-02-15T01:43:09.216Z,0
2023-02-15T01:44:09.200Z,0
2023-02-15T01:45:12.042Z,0
2023-02-15T01:46:09.971Z,0
2023-02-15T01:47:09.187Z,0
2023-02-15T01:48:09.284Z,0
2023-02-15T01:49:09.211Z,0
2023-02-15T01:50:09.246Z,0
2023-02-15T01:51:13.289Z,0
2023-02-15T01:52:09.225Z,0
2023-02-15T01:53:09.245Z,0
2023-02-15T01:54:09.270Z,0
2023-02-15T01:55:11.803Z,0
2023-02-15T01:56:12.275Z,0
2023-02-15T01:57:09.216Z,0
2023-02-15T01:58:09.293Z,0
2023-02-15T01:59:09.215Z,0
2023-02-15T02:00:09.216Z,0
2023-02-15T02:01:09.400Z,0
2023-02-15T02:02:11.992Z,0
2023-02-15T02:03:09.530Z,0
2023-02-15T02:04:09.205Z,0
2023-02-15T02:05:09.234Z,0
2023-02-15T02:06:09.661Z,0
2023-02-15T02:07:12.108Z,0
2023-02-15T02:08:09.258Z,0
2023-02-15T02:09:09.356Z,0
2023-02-15T02:10:09.274Z,0
2023-02-15T02:11:09.226Z,0
2023-02-15T02:12:09.279Z,0
2023-02-15T02:13:09.452Z,0
2023-02-15T02:14:09.270Z,0
2023-02-15T02:15:09.254Z,0
2023-02-15T02:16:10.128Z,0
2023-02-15T02:17:09.221Z,0
2023-02-15T02:18:12.086Z,0
2023-02-15T02:19:09.244Z,0
2023-02-15T02:20:09.299Z,0
2023-02-15T02:21:09.255Z,0
2023-02-15T02:22:09.222Z,0
2023-02-15T02:23:09.374Z,0
2023-02-15T02:24:12.365Z,0
2023-02-15T02:25:09.280Z,0
2023-02-15T02:26:09.680Z,0
2023-02-15T02:27:09.251Z,0
2023-02-15T02:28:09.264Z,0
2023-02-15T02:29:12.122Z,0
2023-02-15T02:30:09.634Z,0
2023-02-15T02:31:09.796Z,0
2023-02-15T02:32:09.582Z,0
2023-02-15T02:33:09.315Z,0
2023-02-15T02:34:09.271Z,0
2023-02-15T02:35:12.052Z,0
2023-02-15T02:36:09.720Z,0
2023-02-15T02:37:09.272Z,0
2023-02-15T02:38:09.289Z,0
2023-02-15T02:39:09.381Z,0
2023-02-15T02:40:12.054Z,0
2023-02-15T02:41:09.427Z,0
2023-02-15T02:42:09.313Z,0
2023-02-15T02:43:09.291Z,0
2023-02-15T02:44:09.272Z,0
2023-02-15T02:45:09.274Z,0
2023-02-15T02:46:10.010Z,0
2023-02-15T02:47:10.285Z,0
2023-02-15T02:48:09.364Z,0
2023-02-15T02:49:09.283Z,0
2023-02-15T02:50:09.308Z,0
2023-02-15T02:51:12.314Z,0
2023-02-15T02:52:09.293Z,0
2023-02-15T02:53:09.306Z,0
2023-02-15T02:54:09.286Z,0
2023-02-15T02:55:09.361Z,0
2023-02-15T02:56:09.830Z,0
2023-02-15T02:57:09.317Z,0
2023-02-15T02:58:09.316Z,0
2023-02-15T02:59:09.331Z,0
2023-02-15T03:00:09.333Z,0
2023-02-15T03:01:09.367Z,0
2023-02-15T03:02:09.495Z,0
2023-02-15T03:03:09.504Z,0
2023-02-15T03:04:09.357Z,0
2023-02-15T03:05:09.580Z,0
2023-02-15T03:06:09.743Z,0
2023-02-15T03:07:12.119Z,0
2023-02-15T03:08:09.382Z,0
2023-02-15T03:09:09.316Z,0
2023-02-15T03:10:09.308Z,0
2023-02-15T03:11:09.429Z,0
2023-02-15T03:12:09.347Z,0
2023-02-15T03:13:09.375Z,0
2023-02-15T03:14:09.322Z,0
2023-02-15T03:15:09.363Z,0
2023-02-15T03:16:10.002Z,0
2023-02-15T03:17:09.446Z,0
2023-02-15T03:18:12.602Z,0
2023-02-15T03:19:09.398Z,0
2023-02-15T03:20:09.341Z,0
2023-02-15T03:21:09.376Z,0
2023-02-15T03:22:09.501Z,0
2023-02-15T03:23:12.140Z,0
2023-02-15T03:24:10.369Z,0
2023-02-15T03:25:09.356Z,0
2023-02-15T03:26:09.917Z,0
2023-02-15T03:27:09.395Z,0
2023-02-15T03:28:10.392Z,0
2023-02-15T03:29:12.209Z,0
2023-02-15T03:30:09.671Z,0
2023-02-15T03:31:09.992Z,0
2023-02-15T03:32:09.774Z,0
2023-02-15T03:33:09.387Z,0
2023-02-15T03:34:12.422Z,0
2023-02-15T03:35:09.343Z,0
2023-02-15T03:36:09.800Z,0
2023-02-15T03:37:12.719Z,0
2023-02-15T03:38:09.382Z,0
2023-02-15T03:39:09.371Z,0
2023-02-15T03:40:12.417Z,0
2023-02-15T03:41:09.377Z,0
2023-02-15T03:42:09.382Z,0
2023-02-15T03:43:09.447Z,0
2023-02-15T03:44:09.548Z,0
2023-02-15T03:45:12.459Z,0
2023-02-15T03:46:09.827Z,0
2023-02-15T03:47:09.483Z,0
2023-02-15T03:48:09.367Z,0
2023-02-15T03:49:09.386Z,0
2023-02-15T03:50:09.402Z,0
2023-02-15T03:51:09.406Z,0
2023-02-15T03:52:09.393Z,0
2023-02-15T03:53:09.474Z,0
2023-02-15T03:54:09.425Z,0
2023-02-15T03:55:09.373Z,0
2023-02-15T03:56:12.549Z,0
2023-02-15T03:57:09.400Z,0
2023-02-15T03:58:09.381Z,0
2023-02-15T03:59:09.470Z,0
2023-02-15T04:00:09.495Z,0
2023-02-15T04:01:09.604Z,0
2023-02-15T04:02:09.420Z,0
2023-02-15T04:03:09.870Z,0
2023-02-15T04:04:09.394Z,0
2023-02-15T04:05:09.364Z,0
2023-02-15T04:06:09.786Z,0
2023-02-15T04:07:12.507Z,0
2023-02-15T04:08:09.433Z,0
2023-02-15T04:09:09.428Z,0
2023-02-15T04:10:09.403Z,0
2023-02-15T04:11:09.405Z,0
2023-02-15T04:12:09.397Z,0
2023-02-15T04:13:09.438Z,0
2023-02-15T04:14:09.440Z,0
2023-02-15T04:15:09.521Z,0
2023-02-15T04:16:11.674Z,0
2023-02-15T04:17:09.478Z,0
2023-02-15T04:18:12.258Z,0
2023-02-15T04:19:09.434Z,0
2023-02-15T04:20:09.424Z,0
2023-02-15T04:21:09.442Z,0
2023-02-15T04:22:09.494Z,0
2023-02-15T04:23:12.523Z,0
2023-02-15T04:24:09.455Z,0
2023-02-15T04:25:09.430Z,0
2023-02-15T04:26:09.741Z,0
2023-02-15T04:27:09.469Z,0
2023-02-15T04:28:09.450Z,0
2023-02-15T04:29:12.560Z,0
2023-02-15T04:30:09.682Z,0
2023-02-15T04:31:12.947Z,0
2023-02-15T04:32:09.831Z,0
2023-02-15T04:33:09.454Z,0
2023-02-15T04:34:12.340Z,0
2023-02-15T04:35:09.478Z,0
2023-02-15T04:36:09.865Z,0
2023-02-15T04:37:09.428Z,0
2023-02-15T04:38:09.501Z,0
2023-02-15T04:39:09.497Z,0
2023-02-15T04:40:12.498Z,0
2023-02-15T04:41:09.453Z,0
2023-02-15T04:42:09.462Z,0
2023-02-15T04:43:09.655Z,0
2023-02-15T04:44:09.538Z,0
2023-02-15T04:45:12.291Z,0
2023-02-15T04:46:10.571Z,0
2023-02-15T04:47:09.545Z,0
2023-02-15T04:48:09.466Z,0
2023-02-15T04:49:09.528Z,0
2023-02-15T04:50:09.476Z,0
2023-02-15T04:51:12.499Z,0
2023-02-15T04:52:09.484Z,0
2023-02-15T04:53:09.475Z,0
2023-02-15T04:54:09.502Z,0
2023-02-15T04:55:09.464Z,0
2023-02-15T04:56:12.496Z,0
2023-02-15T04:57:09.612Z,0
2023-02-15T04:58:09.503Z,0
2023-02-15T04:59:09.583Z,0
2023-02-15T05:00:09.495Z,0
2023-02-15T05:01:09.773Z,0
2023-02-15T05:02:12.413Z,0
2023-02-15T05:03:09.568Z,0
2023-02-15T05:04:10.273Z,0
2023-02-15T05:05:09.512Z,0
2023-02-15T05:06:09.930Z,0
2023-02-15T05:07:12.466Z,0
2023-02-15T05:08:09.496Z,0
2023-02-15T05:09:09.478Z,0
2023-02-15T05:10:09.515Z,0
2023-02-15T05:11:09.540Z,0
2023-02-15T05:12:10.530Z,0
2023-02-15T05:13:09.560Z,0
2023-02-15T05:14:09.503Z,0
2023-02-15T05:15:09.482Z,0
2023-02-15T05:16:10.071Z,0
2023-02-15T05:17:09.553Z,0
2023-02-15T05:18:12.625Z,0
2023-02-15T05:19:09.498Z,0
2023-02-15T05:20:09.513Z,0
2023-02-15T05:21:09.552Z,0
2023-02-15T05:22:09.541Z,0
2023-02-15T05:23:09.522Z,0
2023-02-15T05:24:09.562Z,0
2023-02-15T05:25:09.512Z,0
2023-02-15T05:26:09.954Z,0
2023-02-15T05:27:09.529Z,0
2023-02-15T05:28:11.976Z,0
2023-02-15T05:29:09.539Z,0
2023-02-15T05:30:10.158Z,0
2023-02-15T05:31:10.741Z,0
2023-02-15T05:32:10.459Z,0
2023-02-15T05:33:09.529Z,0
2023-02-15T05:34:12.813Z,0
2023-02-15T05:35:09.553Z,0
2023-02-15T05:36:11.432Z,0
2023-02-15T05:37:09.746Z,0
2023-02-15T05:38:09.575Z,0
2023-02-15T05:39:09.544Z,0
2023-02-15T05:40:09.697Z,0
2023-02-15T05:41:09.552Z,0
2023-02-15T05:42:09.586Z,0
2023-02-15T05:43:09.560Z,0
2023-02-15T05:44:09.567Z,0
2023-02-15T05:45:12.859Z,0
2023-02-15T05:46:10.565Z,0
2023-02-15T05:47:09.569Z,0
2023-02-15T05:48:09.578Z,0
2023-02-15T05:49:09.571Z,0
2023-02-15T05:50:12.754Z,0
2023-02-15T05:51:09.588Z,0
2023-02-15T05:52:09.622Z,0
2023-02-15T05:53:09.656Z,0
2023-02-15T05:54:09.618Z,0
2023-02-15T05:55:09.609Z,0
2023-02-15T05:56:13.231Z,0
2023-02-15T05:57:09.581Z,0
2023-02-15T05:58:09.568Z,0
2023-02-15T05:59:09.689Z,0
2023-02-15T06:00:09.633Z,0
2023-02-15T06:01:12.475Z,0
2023-02-15T06:02:09.875Z,0
2023-02-15T06:03:09.811Z,0
2023-02-15T06:04:09.578Z,0
2023-02-15T06:05:09.636Z,0
2023-02-15T06:06:10.158Z,0
2023-02-15T06:07:09.662Z,0
2023-02-15T06:08:12.519Z,0
2023-02-15T06:09:09.628Z,0
2023-02-15T06:10:09.644Z,0
2023-02-15T06:11:09.627Z,0
2023-02-15T06:12:12.662Z,0
2023-02-15T06:13:09.606Z,4
2023-02-15T06:14:09.653Z,4
2023-02-15T06:15:09.622Z,0
2023-02-15T06:16:10.613Z,0
2023-02-15T06:17:09.615Z,0
2023-02-15T06:18:09.693Z,0
2023-02-15T06:19:09.639Z,4
2023-02-15T06:20:09.639Z,4
2023-02-15T06:21:09.603Z,0
2023-02-15T06:22:09.738Z,0
2023-02-15T06:23:12.425Z,4
2023-02-15T06:24:09.643Z,4
2023-02-15T06:25:09.678Z,4
2023-02-15T06:26:10.081Z,4
2023-02-15T06:27:09.597Z,4
2023-02-15T06:28:09.646Z,4
2023-02-15T06:29:09.615Z,4
2023-02-15T06:30:09.918Z,4
2023-02-15T06:31:10.332Z,4
2023-02-15T06:32:10.085Z,8
2023-02-15T06:33:09.653Z,4
2023-02-15T06:34:12.756Z,4
2023-02-15T06:35:09.663Z,8
2023-02-15T06:36:10.094Z,8
2023-02-15T06:37:09.658Z,8
2023-02-15T06:38:11.585Z,8
2023-02-15T06:39:09.647Z,8
2023-02-15T06:40:10.896Z,8
2023-02-15T06:41:10.696Z,8
2023-02-15T06:42:09.697Z,12
2023-02-15T06:43:09.671Z,8
2023-02-15T06:44:09.661Z,12
2023-02-15T06:45:12.873Z,12
2023-02-15T06:46:10.671Z,12
2023-02-15T06:47:09.735Z,16
2023-02-15T06:48:09.655Z,12
2023-02-15T06:49:09.649Z,12
2023-02-15T06:50:13.368Z,12
2023-02-15T06:51:09.659Z,16
2023-02-15T06:52:09.668Z,20
2023-02-15T06:53:09.530Z,16
2023-02-15T06:54:09.745Z,20
2023-02-15T06:55:09.361Z,16
2023-02-15T06:56:12.865Z,20
2023-02-15T06:57:09.699Z,20
2023-02-15T06:58:09.672Z,20
2023-02-15T06:59:09.535Z,24
2023-02-15T07:00:09.697Z,20
2023-02-15T07:01:12.974Z,20
2023-02-15T07:02:09.684Z,24
2023-02-15T07:03:09.772Z,24
2023-02-15T07:04:09.673Z,24
2023-02-15T07:05:10.171Z,28
2023-02-15T07:06:09.894Z,28
2023-02-15T07:07:12.578Z,28
2023-02-15T07:08:09.557Z,32
2023-02-15T07:09:09.681Z,32
2023-02-15T07:10:09.784Z,32
2023-02-15T07:11:09.683Z,32
2023-02-15T07:12:12.807Z,32
2023-02-15T07:13:09.691Z,36
2023-02-15T07:14:09.687Z,36
2023-02-15T07:15:09.726Z,36
2023-02-15T07:16:10.402Z,40
2023-02-15T07:17:36.217Z,36
2023-02-15T07:18:12.806Z,40
2023-02-15T07:19:09.753Z,40
2023-02-15T07:20:09.762Z,36
2023-02-15T07:21:09.725Z,36
2023-02-15T07:22:09.726Z,36
2023-02-15T07:23:12.541Z,40
2023-02-15T07:24:09.720Z,40
2023-02-15T07:25:09.744Z,40
2023-02-15T07:26:10.212Z,40
2023-02-15T07:27:09.709Z,40
2023-02-15T07:28:09.758Z,40
2023-02-15T07:29:12.747Z,44
2023-02-15T07:30:09.979Z,40
2023-02-15T07:31:09.933Z,44
2023-02-15T07:32:10.025Z,44
2023-02-15T07:33:12.361Z,48
2023-02-15T07:34:12.501Z,48
2023-02-15T07:35:09.727Z,48
2023-02-15T07:36:10.411Z,48
2023-02-15T07:37:09.757Z,52
2023-02-15T07:38:09.744Z,52
2023-02-15T07:39:09.792Z,56
2023-02-15T07:40:09.749Z,60
2023-02-15T07:41:09.737Z,64
2023-02-15T07:42:09.834Z,64
2023-02-15T07:43:09.855Z,64
2023-02-15T07:44:09.853Z,64
2023-02-15T07:45:11.315Z,64
2023-02-15T07:46:10.323Z,64
2023-02-15T07:47:09.784Z,64
2023-02-15T07:48:09.799Z,64
2023-02-15T07:49:09.731Z,68
2023-02-15T07:50:10.871Z,68
2023-02-15T07:51:09.745Z,72
2023-02-15T07:52:09.755Z,72
2023-02-15T07:53:10.792Z,72
2023-02-15T07:54:10.918Z,72
2023-02-15T07:55:09.873Z,72
2023-02-15T07:56:10.177Z,72
2023-02-15T07:57:09.771Z,72
2023-02-15T07:58:09.681Z,76
2023-02-15T07:59:09.752Z,76
2023-02-15T08:00:09.842Z,72
2023-02-15T08:01:12.829Z,76
2023-02-15T08:02:09.745Z,76
2023-02-15T08:03:10.547Z,76
2023-02-15T08:04:10.012Z,76
2023-02-15T08:05:09.643Z,76
2023-02-15T08:06:10.232Z,80
2023-02-15T08:07:09.774Z,76
2023-02-15T08:08:09.841Z,80
2023-02-15T08:09:09.790Z,80
2023-02-15T08:10:09.648Z,84
2023-02-15T08:11:09.805Z,80
2023-02-15T08:12:12.544Z,80
2023-02-15T08:13:09.965Z,84
2023-02-15T08:14:09.942Z,84
2023-02-15T08:15:09.892Z,88
2023-02-15T08:16:13.042Z,88
2023-02-15T08:17:12.578Z,92
2023-02-15T08:18:09.789Z,96
2023-02-15T08:19:09.853Z,100
2023-02-15T08:20:09.687Z,100
2023-02-15T08:21:09.676Z,100
2023-02-15T08:22:09.816Z,104
2023-02-15T08:23:12.907Z,108
2023-02-15T08:24:09.647Z,112
2023-02-15T08:25:09.824Z,116
2023-02-15T08:26:10.048Z,116
2023-02-15T08:27:12.581Z,116
2023-02-15T08:28:12.622Z,116
2023-02-15T08:29:09.893Z,116
2023-02-15T08:30:10.398Z,116
2023-02-15T08:31:10.823Z,120
2023-02-15T08:32:10.693Z,124
2023-02-15T08:33:09.793Z,120
2023-02-15T08:34:09.884Z,116
2023-02-15T08:35:09.711Z,120
2023-02-15T08:36:09.831Z,120
2023-02-15T08:37:09.866Z,120
2023-02-15T08:38:09.851Z,120
2023-02-15T08:39:12.945Z,124
2023-02-15T08:40:09.862Z,128
2023-02-15T08:41:10.235Z,128
2023-02-15T08:42:09.967Z,128
2023-02-15T08:43:09.882Z,128
2023-02-15T08:44:09.829Z,124
2023-02-15T08:45:09.897Z,124
2023-02-15T08:46:10.324Z,128
2023-02-15T08:47:09.849Z,132
2023-02-15T08:48:10.105Z,148
2023-02-15T08:49:09.886Z,156
2023-02-15T08:50:12.659Z,156
2023-02-15T08:51:10.309Z,156
2023-02-15T08:52:09.852Z,152
2023-02-15T08:53:10.861Z,152
2023-02-15T08:54:10.886Z,148
2023-02-15T08:55:09.873Z,144
2023-02-15T08:56:09.854Z,152
2023-02-15T08:57:09.844Z,156
2023-02-15T08:58:09.905Z,156
2023-02-15T08:59:09.884Z,156
2023-02-15T09:00:09.869Z,160
2023-02-15T09:01:13.696Z,156
2023-02-15T09:02:09.898Z,164
2023-02-15T09:03:09.891Z,160
2023-02-15T09:04:09.941Z,156
2023-02-15T09:05:09.986Z,156
2023-02-15T09:06:09.984Z,160
2023-02-15T09:07:09.877Z,168
2023-02-15T09:08:09.905Z,180
2023-02-15T09:09:09.943Z,180
2023-02-15T09:10:09.911Z,176
2023-02-15T09:11:10.495Z,172
2023-02-15T09:12:10.954Z,172
2023-02-15T09:13:09.866Z,180
2023-02-15T09:14:09.918Z,184
2023-02-15T09:15:09.884Z,188
2023-02-15T09:16:10.063Z,180
2023-02-15T09:17:10.493Z,180
2023-02-15T09:18:09.819Z,172
2023-02-15T09:19:09.885Z,176
2023-02-15T09:20:10.026Z,180
2023-02-15T09:21:10.415Z,180
2023-02-15T09:22:09.923Z,184
2023-02-15T09:23:27.152Z,200
2023-02-15T09:24:09.928Z,200
2023-02-15T09:25:09.927Z,200
2023-02-15T09:26:09.942Z,204
2023-02-15T09:27:09.899Z,212
2023-02-15T09:28:15.592Z,220
2023-02-15T09:29:09.939Z,224
2023-02-15T09:30:10.192Z,228
2023-02-15T09:31:10.662Z,224
2023-02-15T09:32:10.262Z,228
2023-02-15T09:33:10.082Z,240
2023-02-15T09:34:12.948Z,236
2023-02-15T09:35:09.833Z,236
2023-02-15T09:36:09.983Z,232
2023-02-15T09:37:09.956Z,228
2023-02-15T09:38:09.898Z,224
2023-02-15T09:39:12.869Z,228
2023-02-15T09:40:09.955Z,224
2023-02-15T09:41:10.382Z,220
2023-02-15T09:42:09.936Z,216
2023-02-15T09:43:09.927Z,208
2023-02-15T09:44:09.940Z,204
2023-02-15T09:45:10.844Z,200
2023-02-15T09:46:10.323Z,204
2023-02-15T09:47:09.945Z,208
2023-02-15T09:48:09.477Z,208
2023-02-15T09:49:10.012Z,208
2023-02-15T09:50:12.998Z,208
2023-02-15T09:51:10.431Z,204
2023-02-15T09:52:10.194Z,208
2023-02-15T09:53:12.976Z,216
2023-02-15T09:54:09.976Z,220
2023-02-15T09:55:09.944Z,224
2023-02-15T09:56:13.075Z,228
2023-02-15T09:57:09.958Z,228
2023-02-15T09:58:09.970Z,228
2023-02-15T09:59:10.953Z,228
2023-02-15T10:00:09.970Z,232
2023-02-15T10:01:13.986Z,232
2023-02-15T10:02:09.984Z,232
2023-02-15T10:03:12.957Z,228
2023-02-15T10:04:10.302Z,232
2023-02-15T10:05:10.100Z,244
2023-02-15T10:06:09.988Z,260
2023-02-15T10:07:09.961Z,264
2023-02-15T10:08:09.968Z,256
2023-02-15T10:09:09.998Z,252
2023-02-15T10:10:09.955Z,256
2023-02-15T10:11:10.476Z,256
2023-02-15T10:12:13.098Z,264
2023-02-15T10:13:10.010Z,276
2023-02-15T10:14:09.985Z,272
2023-02-15T10:15:10.190Z,268
2023-02-15T10:16:10.036Z,268
2023-02-15T10:17:10.279Z,272
2023-02-15T10:18:11.064Z,284
2023-02-15T10:19:10.001Z,300
2023-02-15T10:20:10.001Z,308
2023-02-15T10:21:10.768Z,304
2023-02-15T10:22:10.041Z,296
2023-02-15T10:23:10.048Z,300
2023-02-15T10:24:10.113Z,312
2023-02-15T10:25:10.056Z,320
2023-02-15T10:26:10.424Z,332
2023-02-15T10:27:10.011Z,356
2023-02-15T10:28:12.872Z,384
2023-02-15T10:29:09.989Z,424
2023-02-15T10:30:10.278Z,400
2023-02-15T10:31:11.371Z,372
2023-02-15T10:32:10.730Z,372
2023-02-15T10:33:10.086Z,360
2023-02-15T10:34:10.063Z,376
2023-02-15T10:35:10.019Z,388
2023-02-15T10:36:10.051Z,400
2023-02-15T10:37:09.941Z,396
2023-02-15T10:38:10.074Z,412
2023-02-15T10:39:13.118Z,444
2023-02-15T10:40:10.091Z,444
2023-02-15T10:41:10.568Z,424
2023-02-15T10:42:10.058Z,420
2023-02-15T10:43:10.041Z,456
2023-02-15T10:44:13.128Z,484
2023-02-15T10:45:10.030Z,512
2023-02-15T10:46:10.304Z,612
2023-02-15T10:47:12.446Z,668
2023-02-15T10:48:13.078Z,712
2023-02-15T10:49:10.030Z,656
2023-02-15T10:50:13.424Z,648
2023-02-15T10:51:10.467Z,648
2023-02-15T10:52:10.020Z,628
2023-02-15T10:53:10.127Z,572
2023-02-15T10:54:10.046Z,536
2023-02-15T10:55:12.880Z,516
2023-02-15T10:56:11.137Z,508
2023-02-15T10:57:10.250Z,512
2023-02-15T10:58:10.056Z,520
2023-02-15T10:59:10.097Z,548
2023-02-15T11:00:10.081Z,580
2023-02-15T11:01:12.903Z,540
2023-02-15T11:02:10.093Z,524
2023-02-15T11:03:10.070Z,500
2023-02-15T11:04:10.239Z,480
2023-02-15T11:05:11.511Z,468
2023-02-15T11:06:12.830Z,452
2023-02-15T11:07:10.088Z,444
2023-02-15T11:08:10.119Z,464
2023-02-15T11:09:10.362Z,492
2023-02-15T11:10:10.092Z,500
2023-02-15T11:11:10.864Z,496
2023-02-15T11:12:17.432Z,492
2023-02-15T11:13:10.109Z,504
2023-02-15T11:14:10.121Z,516
2023-02-15T11:15:10.096Z,516
2023-02-15T11:16:10.410Z,512
2023-02-15T11:17:13.181Z,532
2023-02-15T11:18:10.088Z,548
2023-02-15T11:19:10.119Z,548
2023-02-15T11:20:10.122Z,560
2023-02-15T11:21:10.656Z,604
2023-02-15T11:22:10.162Z,620
2023-02-15T11:23:10.130Z,588
2023-02-15T11:24:10.112Z,552
2023-02-15T11:25:10.191Z,496
2023-02-15T11:26:10.130Z,440
2023-02-15T11:27:10.343Z,420
2023-02-15T11:28:12.951Z,436
2023-02-15T11:29:10.140Z,484
2023-02-15T11:30:10.535Z,568
2023-02-15T11:31:11.459Z,616
2023-02-15T11:32:10.786Z,624
2023-02-15T11:33:11.839Z,560
2023-02-15T11:34:10.128Z,528
2023-02-15T11:35:10.124Z,520
2023-02-15T11:36:10.118Z,508
2023-02-15T11:37:10.220Z,492
2023-02-15T11:38:10.130Z,524
2023-02-15T11:39:12.943Z,572
2023-02-15T11:40:10.147Z,596
2023-02-15T11:41:10.753Z,600
2023-02-15T11:42:10.135Z,596
2023-02-15T11:43:10.167Z,584
2023-02-15T11:44:10.243Z,564
2023-02-15T11:45:10.205Z,560
2023-02-15T11:46:12.254Z,564
2023-02-15T11:47:10.150Z,552
2023-02-15T11:48:10.117Z,532
2023-02-15T11:49:10.151Z,488
2023-02-15T11:50:12.872Z,448
2023-02-15T11:51:10.651Z,412
2023-02-15T11:52:10.328Z,404
2023-02-15T11:53:10.165Z,404
2023-02-15T11:54:10.116Z,408
2023-02-15T11:55:13.161Z,408
2023-02-15T11:56:10.148Z,412
2023-02-15T11:57:10.243Z,424
2023-02-15T11:58:10.125Z,460
2023-02-15T11:59:10.248Z,636
2023-02-15T12:00:10.277Z,564
2023-02-15T12:01:13.492Z,580
2023-02-15T12:02:10.163Z,568
2023-02-15T12:03:10.449Z,576
2023-02-15T12:04:10.456Z,584
2023-02-15T12:05:10.168Z,608
2023-02-15T12:06:13.069Z,580
2023-02-15T12:07:10.202Z,620
2023-02-15T12:08:10.158Z,652
2023-02-15T12:09:10.186Z,588
2023-02-15T12:10:10.204Z,556
2023-02-15T12:11:10.636Z,504
2023-02-15T12:12:13.037Z,484
2023-02-15T12:13:10.343Z,468
2023-02-15T12:14:10.234Z,492
2023-02-15T12:15:10.202Z,540
2023-02-15T12:16:13.620Z,692
2023-02-15T12:17:13.756Z,680
2023-02-15T12:18:10.177Z,740
2023-02-15T12:19:10.254Z,700
2023-02-15T12:20:10.214Z,800
2023-02-15T12:21:10.513Z,600
2023-02-15T12:22:13.987Z,640
2023-02-15T12:23:12.899Z,824
2023-02-15T12:24:10.052Z,744
2023-02-15T12:25:09.884Z,812
2023-02-15T12:26:10.155Z,804
2023-02-15T12:27:10.236Z,696
2023-02-15T12:28:13.115Z,740
2023-02-15T12:29:10.057Z,788
2023-02-15T12:30:10.738Z,764
2023-02-15T12:31:11.409Z,784
2023-02-15T12:32:11.041Z,776
2023-02-15T12:33:10.224Z,660
2023-02-15T12:34:10.240Z,740
2023-02-15T12:35:10.196Z,648
2023-02-15T12:36:10.785Z,704
2023-02-15T12:37:10.228Z,624
2023-02-15T12:38:10.205Z,432
2023-02-15T12:39:13.209Z,672
2023-02-15T12:40:10.098Z,540
2023-02-15T12:41:13.348Z,732
2023-02-15T12:42:10.232Z,664
2023-02-15T12:43:16.099Z,724
2023-02-15T12:44:16.744Z,732
2023-02-15T12:45:10.254Z,608
2023-02-15T12:46:10.758Z,676
2023-02-15T12:47:10.742Z,664
2023-02-15T12:48:10.291Z,428
2023-02-15T12:49:10.237Z,568
2023-02-15T12:50:17.755Z,396
2023-02-15T12:51:11.084Z,608
2023-02-15T12:52:10.344Z,660
2023-02-15T12:53:10.248Z,416
2023-02-15T12:54:10.242Z,364
2023-02-15T12:55:13.476Z,368
2023-02-15T12:56:10.244Z,420
2023-02-15T12:57:10.265Z,572
2023-02-15T12:58:10.316Z,592
2023-02-15T12:59:10.412Z,596
2023-02-15T13:00:10.253Z,716
2023-02-15T13:01:10.926Z,692
2023-02-15T13:02:10.617Z,692
2023-02-15T13:03:10.226Z,508
2023-02-15T13:04:10.327Z,480
2023-02-15T13:05:10.216Z,464
2023-02-15T13:06:19.315Z,424
2023-02-15T13:07:10.135Z,572
2023-02-15T13:08:10.140Z,672
2023-02-15T13:09:10.247Z,672
2023-02-15T13:10:10.250Z,672
2023-02-15T13:11:13.280Z,680
2023-02-15T13:12:10.277Z,660
2023-02-15T13:13:10.133Z,664
2023-02-15T13:14:10.115Z,664
2023-02-15T13:15:10.456Z,660
2023-02-15T13:16:10.590Z,672
2023-02-15T13:17:14.241Z,668
2023-02-15T13:18:10.300Z,656
2023-02-15T13:19:10.292Z,652
2023-02-15T13:20:10.324Z,652
2023-02-15T13:21:10.879Z,652
2023-02-15T13:22:13.399Z,656
2023-02-15T13:23:10.266Z,652
2023-02-15T13:24:11.533Z,656
2023-02-15T13:25:10.277Z,660
2023-02-15T13:26:10.269Z,656
2023-02-15T13:27:22.276Z,660
2023-02-15T13:28:13.056Z,664
2023-02-15T13:29:10.319Z,660
2023-02-15T13:30:10.480Z,660
2023-02-15T13:31:11.157Z,656
2023-02-15T13:32:10.611Z,664
2023-02-15T13:33:13.198Z,660
2023-02-15T13:34:10.266Z,656
2023-02-15T13:35:13.186Z,644
2023-02-15T13:36:10.289Z,644
2023-02-15T13:37:10.390Z,632
2023-02-15T13:38:10.323Z,628
2023-02-15T13:39:13.181Z,632
2023-02-15T13:40:10.292Z,636
2023-02-15T13:41:10.718Z,632
2023-02-15T13:42:10.272Z,640
2023-02-15T13:43:10.340Z,636
2023-02-15T13:44:13.110Z,636
2023-02-15T13:45:10.298Z,636
2023-02-15T13:46:11.279Z,632
2023-02-15T13:47:10.374Z,632
2023-02-15T13:48:10.325Z,624
2023-02-15T13:49:10.310Z,628
2023-02-15T13:50:10.297Z,632
2023-02-15T13:51:10.314Z,636
2023-02-15T13:52:10.362Z,632
2023-02-15T13:53:10.368Z,632
2023-02-15T13:54:10.334Z,640
2023-02-15T13:55:13.378Z,644
2023-02-15T13:56:10.728Z,644
2023-02-15T13:57:10.318Z,648
2023-02-15T13:58:10.410Z,644
2023-02-15T13:59:10.308Z,652
2023-02-15T14:00:10.352Z,648
2023-02-15T14:01:11.202Z,648
2023-02-15T14:02:10.315Z,656
2023-02-15T14:03:10.489Z,660
2023-02-15T14:04:10.507Z,652
2023-02-15T14:05:10.317Z,652
2023-02-15T14:06:13.168Z,648
2023-02-15T14:07:10.406Z,648
2023-02-15T14:08:10.400Z,644
2023-02-15T14:09:10.403Z,648
2023-02-15T14:10:10.374Z,644
2023-02-15T14:11:10.818Z,636
2023-02-15T14:12:10.349Z,636
2023-02-15T14:13:10.368Z,632
2023-02-15T14:14:10.390Z,624
2023-02-15T14:15:10.379Z,620
2023-02-15T14:16:10.453Z,612
2023-02-15T14:17:18.195Z,612